Time;durP1;ratioP1;P1;durP2;ratioP2;P2;SDS_P1;SDS_P2;PMS_P1;PMS_P2;Temp;Humidity;BMP_temperature;BMP_pressure;BME280_temperature;BME280_humidity;BME280_pressure;Samples;Min_cycle;Max_cycle;Signal;HPM_P1;HPM_P2
2021/05/23 00:02:25;;;;;;;3.15;1.48;;;14.50;82.10;;;;;;5017327;28;20504;-71
2021/05/23 00:05:13;;;;;;;2.30;1.40;;;14.50;82.30;;;;;;5001391;28;20037;-71
2021/05/23 00:08:19;;;;;;;4.32;1.60;;;14.50;82.50;;;;;;5016157;28;20096;-71
2021/05/23 00:11:07;;;;;;;2.15;1.38;;;14.40;82.80;;;;;;5014460;28;20061;-72
2021/05/23 00:13:51;;;;;;;3.67;1.55;;;14.40;82.80;;;;;;5002940;28;20057;-71
2021/05/23 00:16:35;;;;;;;2.30;1.50;;;14.40;82.90;;;;;;5003020;28;20041;-71
2021/05/23 00:19:19;;;;;;;4.03;1.70;;;14.30;83.00;;;;;;5014925;28;20044;-72
2021/05/23 00:22:05;;;;;;;4.20;2.00;;;14.30;83.20;;;;;;5013394;28;20450;-71
2021/05/23 00:24:49;;;;;;;2.83;1.70;;;14.30;83.30;;;;;;4996481;28;20049;-71
2021/05/23 00:27:33;;;;;;;2.58;1.75;;;14.30;83.50;;;;;;4999212;28;20080;-69
2021/05/23 00:30:19;;;;;;;3.75;1.80;;;14.20;83.60;;;;;;5030551;28;20085;-70
2021/05/23 00:33:06;;;;;;;5.70;2.20;;;14.20;83.70;;;;;;5027492;28;20083;-71
2021/05/23 00:35:50;;;;;;;3.03;1.92;;;14.20;83.80;;;;;;5025146;28;20445;-70
2021/05/23 00:38:35;;;;;;;6.15;2.50;;;14.20;83.80;;;;;;5029456;28;20039;-70
2021/05/23 00:41:19;;;;;;;2.42;1.75;;;14.10;83.90;;;;;;5004647;28;20033;-70
2021/05/23 00:44:03;;;;;;;5.40;2.00;;;14.10;84.00;;;;;;5032293;28;20040;-70
2021/05/23 00:46:47;;;;;;;4.35;1.98;;;14.10;84.10;;;;;;5016337;28;20292;-70
2021/05/23 00:49:36;;;;;;;3.58;2.10;;;14.10;84.10;;;;;;4994528;28;20101;-70
2021/05/23 00:52:21;;;;;;;3.45;2.25;;;14.10;84.30;;;;;;5016493;28;20543;-69
2021/05/23 00:55:06;;;;;;;3.88;2.17;;;14.00;84.40;;;;;;5009564;28;20092;-68
2021/05/23 00:57:51;;;;;;;3.97;2.10;;;14.00;84.40;;;;;;5019793;28;20037;-69
2021/05/23 01:00:41;;;;;;;3.45;2.17;;;14.00;84.60;;;;;;5025999;28;20048;-69
2021/05/23 01:03:29;;;;;;;4.55;1.77;;;14.00;84.80;;;;;;5028571;28;20048;-68
2021/05/23 01:06:13;;;;;;;2.83;1.92;;;14.00;84.80;;;;;;5020712;28;20081;-69
2021/05/23 01:08:58;;;;;;;3.20;2.10;;;13.90;85.00;;;;;;5012079;28;20084;-68
2021/05/23 01:11:42;;;;;;;3.47;2.67;;;13.90;85.20;;;;;;5000092;28;20144;-68
2021/05/23 01:14:32;;;;;;;2.53;1.83;;;13.90;85.20;;;;;;5013508;28;20029;-69
2021/05/23 01:17:20;;;;;;;3.25;1.92;;;13.90;85.40;;;;;;5002978;28;20028;-68
2021/05/23 01:20:26;;;;;;;2.75;1.90;;;13.90;85.40;;;;;;5026941;28;20458;-68
2021/05/23 01:23:19;;;;;;;3.22;1.88;;;13.90;85.50;;;;;;5027799;28;20060;-69
2021/05/23 01:26:09;;;;;;;3.35;1.95;;;13.90;85.60;;;;;;5018088;28;20080;-69
2021/05/23 01:29:03;;;;;;;2.40;1.90;;;13.80;85.60;;;;;;4993296;28;20049;-69
2021/05/23 01:31:48;;;;;;;4.72;2.15;;;13.80;85.80;;;;;;4999063;28;20456;-69
2021/05/23 01:34:34;;;;;;;4.75;2.28;;;13.80;85.90;;;;;;5030860;28;20033;-69
2021/05/23 01:37:23;;;;;;;3.28;2.22;;;13.70;85.80;;;;;;5003775;28;20036;-69
2021/05/23 01:40:08;;;;;;;3.40;2.00;;;13.80;85.90;;;;;;4997280;28;20036;-69
2021/05/23 01:42:53;;;;;;;3.35;2.03;;;13.70;86.00;;;;;;5026368;28;20083;-69
2021/05/23 01:45:39;;;;;;;3.42;2.10;;;13.70;86.00;;;;;;5021472;28;20088;-69
2021/05/23 01:48:24;;;;;;;4.88;2.10;;;13.70;86.10;;;;;;5029932;28;20048;-70
2021/05/23 01:51:08;;;;;;;4.75;1.90;;;13.60;86.30;;;;;;5017804;28;20075;-69
2021/05/23 01:53:52;;;;;;;4.57;2.28;;;13.60;86.50;;;;;;5012877;28;20456;-69
2021/05/23 01:56:38;;;;;;;3.53;2.00;;;13.60;86.60;;;;;;5016076;28;20072;-69
2021/05/23 01:59:22;;;;;;;3.97;2.42;;;13.60;86.90;;;;;;5030786;28;20039;-69
2021/05/23 02:02:06;;;;;;;2.83;1.92;;;13.50;87.00;;;;;;5011240;28;20056;-69
2021/05/23 02:04:50;;;;;;;3.47;2.20;;;13.50;87.20;;;;;;5027754;28;20177;-69
2021/05/23 02:07:34;;;;;;;3.33;2.03;;;13.40;87.30;;;;;;5039995;28;20052;-69
2021/05/23 02:10:20;;;;;;;3.63;2.60;;;13.40;87.50;;;;;;4998371;28;20037;-69
2021/05/23 02:13:06;;;;;;;3.03;2.03;;;13.30;87.60;;;;;;5031967;28;20041;-69
2021/05/23 02:15:51;;;;;;;5.40;3.28;;;13.30;87.80;;;;;;5020251;28;20076;-69
2021/05/23 02:18:36;;;;;;;;;;;13.30;87.90;;;;;;5032729;28;20425;-69
2021/05/23 02:21:20;;;;;;;4.70;2.58;;;13.20;87.10;;;;;;5020954;28;19970;-69
2021/05/23 02:24:05;;;;;;;3.80;2.60;;;13.20;87.70;;;;;;5030527;28;20083;-69
2021/05/23 02:26:49;;;;;;;5.57;2.53;;;13.20;88.20;;;;;;5022345;28;20427;-69
2021/05/23 02:29:33;;;;;;;5.70;2.28;;;13.10;88.30;;;;;;5029629;28;20084;-70
2021/05/23 02:32:17;;;;;;;3.78;2.05;;;13.10;88.60;;;;;;5007681;28;20084;-69
2021/05/23 02:35:02;;;;;;;4.95;2.95;;;13.10;88.90;;;;;;5002627;28;20153;-68
2021/05/23 02:37:47;;;;;;;4.25;2.40;;;13.00;88.80;;;;;;5010805;28;20084;-68
2021/05/23 02:40:32;;;;;;;3.13;2.28;;;13.00;89.10;;;;;;5000299;28;20051;-68
2021/05/23 02:43:18;;;;;;;4.10;2.50;;;12.90;89.30;;;;;;5011811;28;20382;-69
2021/05/23 02:46:04;;;;;;;3.88;2.40;;;12.90;89.50;;;;;;5006320;28;20044;-69
2021/05/23 02:48:48;;;;;;;3.55;2.40;;;12.90;89.80;;;;;;5011439;28;20121;-69
2021/05/23 02:51:32;;;;;;;4.20;2.30;;;12.90;89.80;;;;;;5023143;28;20033;-69
2021/05/23 02:54:16;;;;;;;5.00;2.97;;;12.80;90.00;;;;;;5017728;28;20572;-69
2021/05/23 02:57:00;;;;;;;7.38;3.47;;;12.80;90.00;;;;;;5026665;28;20119;-69
2021/05/23 02:59:44;;;;;;;5.38;3.20;;;12.80;90.10;;;;;;5026974;28;20160;-69
2021/05/23 03:02:28;;;;;;;6.20;3.40;;;12.80;90.20;;;;;;4992069;28;20129;-69
2021/05/23 03:05:14;;;;;;;5.45;3.30;;;12.80;90.30;;;;;;4993942;28;20085;-69
2021/05/23 03:07:58;;;;;;;6.90;3.70;;;12.70;90.30;;;;;;5008993;28;20133;-68
2021/05/23 03:10:46;;;;;;;4.00;2.40;;;12.70;90.40;;;;;;5018541;28;20041;-69
2021/05/23 03:13:30;;;;;;;3.72;2.63;;;12.70;90.50;;;;;;5011516;28;20052;-68
2021/05/23 03:16:14;;;;;;;4.03;2.30;;;12.70;90.60;;;;;;5022557;28;20068;-69
2021/05/23 03:18:58;;;;;;;2.50;2.00;;;12.70;90.60;;;;;;5028177;28;20075;-68
2021/05/23 03:21:42;;;;;;;2.78;2.03;;;12.70;90.60;;;;;;5010271;28;20061;-69
2021/05/23 03:24:26;;;;;;;5.15;2.00;;;12.70;90.80;;;;;;5015599;28;20507;-69
2021/05/23 03:27:10;;;;;;;2.88;2.20;;;12.70;90.90;;;;;;4992262;28;20481;-69
2021/05/23 03:29:54;;;;;;;2.63;2.10;;;12.70;91.00;;;;;;5003734;28;20505;-69
2021/05/23 03:32:39;;;;;;;5.22;2.30;;;12.70;91.10;;;;;;5011853;28;20056;-69
2021/05/23 03:35:23;;;;;;;3.50;2.10;;;12.70;91.10;;;;;;5019881;28;20513;-69
2021/05/23 03:38:08;;;;;;;3.50;1.98;;;12.80;91.20;;;;;;5015360;28;20072;-69
2021/05/23 03:40:52;;;;;;;3.50;2.40;;;12.80;91.10;;;;;;5020340;28;20044;-69
2021/05/23 03:43:36;;;;;;;5.13;2.13;;;12.80;91.10;;;;;;5013921;28;20076;-69
2021/05/23 03:46:20;;;;;;;2.88;2.00;;;12.80;91.20;;;;;;5009715;28;20068;-69
2021/05/23 03:49:04;;;;;;;4.82;2.17;;;12.80;91.30;;;;;;5018064;28;20057;-69
2021/05/23 03:51:49;;;;;;;3.58;2.03;;;12.90;91.40;;;;;;5011963;28;20108;-69
2021/05/23 03:54:33;;;;;;;3.45;2.00;;;12.90;91.40;;;;;;5021269;28;20044;-69
2021/05/23 03:57:17;;;;;;;3.43;2.30;;;12.80;91.40;;;;;;4995480;28;20033;-69
2021/05/23 04:00:01;;;;;;;3.85;2.20;;;12.80;91.40;;;;;;5008105;28;20053;-69
2021/05/23 04:02:49;;;;;;;4.03;2.17;;;12.80;91.40;;;;;;5013245;28;20498;-69
2021/05/23 04:05:33;;;;;;;3.10;1.90;;;12.90;91.50;;;;;;5018714;28;20037;-69
2021/05/23 04:08:17;;;;;;;6.07;2.53;;;12.80;91.50;;;;;;4994838;28;20084;-69
2021/05/23 04:11:11;;;;;;;3.22;2.10;;;12.90;91.60;;;;;;5007710;28;20096;-69
2021/05/23 04:13:56;;;;;;;3.05;2.08;;;12.90;91.60;;;;;;5033689;28;20032;-69
2021/05/23 04:16:40;;;;;;;3.40;2.00;;;13.00;91.60;;;;;;5015289;28;20028;-69
2021/05/23 04:19:24;;;;;;;3.58;1.90;;;13.00;91.60;;;;;;5014083;28;20052;-68
2021/05/23 04:22:10;;;;;;;5.13;2.10;;;13.10;91.70;;;;;;5015788;28;20040;-68
2021/05/23 04:24:54;;;;;;;3.60;2.17;;;13.20;91.70;;;;;;5028861;28;20045;-69
2021/05/23 04:27:38;;;;;;;2.53;1.75;;;13.20;91.70;;;;;;5027720;28;20455;-68
2021/05/23 04:30:25;;;;;;;4.15;1.88;;;13.30;91.70;;;;;;5024534;28;20084;-68
2021/05/23 04:33:09;;;;;;;3.28;2.05;;;13.40;91.70;;;;;;4998151;28;20045;-68
2021/05/23 04:35:53;;;;;;;4.68;2.13;;;13.40;91.80;;;;;;4994918;28;20041;-67
2021/05/23 04:38:37;;;;;;;3.47;1.90;;;13.40;91.80;;;;;;4994259;28;20038;-69
2021/05/23 04:41:21;;;;;;;4.55;2.20;;;13.50;91.80;;;;;;5011381;28;20029;-69
2021/05/23 04:44:07;;;;;;;2.92;1.90;;;13.50;91.80;;;;;;5033651;28;20406;-69
2021/05/23 04:46:51;;;;;;;3.15;2.08;;;13.50;91.70;;;;;;5009130;28;20075;-69
2021/05/23 04:49:39;;;;;;;2.65;1.70;;;13.60;91.80;;;;;;5031282;28;20044;-69
2021/05/23 04:52:23;;;;;;;2.30;1.58;;;13.70;91.90;;;;;;5015386;28;20097;-69
2021/05/23 04:55:09;;;;;;;4.65;1.98;;;13.70;91.50;;;;;;5015463;28;20398;-69
2021/05/23 04:57:53;;;;;;;4.13;1.83;;;13.70;91.40;;;;;;5022949;28;20028;-69
2021/05/23 05:00:37;;;;;;;2.75;1.88;;;13.80;91.40;;;;;;5020712;28;20115;-69
2021/05/23 05:03:21;;;;;;;3.97;1.85;;;13.80;91.40;;;;;;5011733;28;20533;-69
2021/05/23 05:06:05;;;;;;;2.60;1.70;;;13.90;91.30;;;;;;5014104;28;20050;-70
2021/05/23 05:08:50;;;;;;;2.20;1.75;;;14.00;91.20;;;;;;5032914;28;20402;-69
2021/05/23 05:11:34;;;;;;;2.40;1.60;;;14.10;91.10;;;;;;5019785;28;20075;-70
2021/05/23 05:14:19;;;;;;;2.38;1.67;;;14.10;91.00;;;;;;5013110;28;20072;-69
2021/05/23 05:17:03;;;;;;;3.42;1.50;;;14.20;91.00;;;;;;5004828;28;20040;-70
2021/05/23 05:19:47;;;;;;;2.80;1.50;;;14.30;90.90;;;;;;5011949;28;20045;-70
2021/05/23 05:22:31;;;;;;;2.47;1.65;;;14.30;90.70;;;;;;5012978;28;20612;-70
2021/05/23 05:25:15;;;;;;;3.08;1.40;;;14.30;90.80;;;;;;5011230;28;20399;-69
2021/05/23 05:27:59;;;;;;;2.10;1.38;;;14.40;90.70;;;;;;4993225;28;20475;-70
2021/05/23 05:30:43;;;;;;;4.45;1.70;;;14.40;90.50;;;;;;4998387;28;20120;-70
2021/05/23 05:33:27;;;;;;;3.15;1.50;;;14.50;90.50;;;;;;5013509;28;20119;-70
2021/05/23 05:36:11;;;;;;;2.05;1.48;;;14.50;90.50;;;;;;5018049;28;20041;-70
2021/05/23 05:38:56;;;;;;;2.80;1.60;;;14.50;90.40;;;;;;5032708;28;20075;-71
2021/05/23 05:41:40;;;;;;;2.28;1.67;;;14.60;90.40;;;;;;5023395;28;20112;-71
2021/05/23 05:44:25;;;;;;;3.13;1.67;;;14.60;90.40;;;;;;5029371;28;20084;-71
2021/05/23 05:47:09;;;;;;;3.42;1.40;;;14.60;90.30;;;;;;5030033;28;20116;-70
2021/05/23 05:49:53;;;;;;;2.25;1.60;;;14.60;90.30;;;;;;5027721;28;20433;-69
2021/05/23 05:52:38;;;;;;;4.30;1.90;;;14.70;90.10;;;;;;5005731;28;20077;-69
2021/05/23 05:55:22;;;;;;;3.13;1.43;;;14.60;90.10;;;;;;4999395;28;20118;-69
2021/05/23 05:58:06;;;;;;;1.85;1.33;;;14.60;90.00;;;;;;5010591;28;20387;-69
2021/05/23 06:00:50;;;;;;;2.00;1.45;;;14.60;89.90;;;;;;5005839;28;20043;-69
2021/05/23 06:03:34;;;;;;;2.92;1.60;;;14.60;89.90;;;;;;5025077;28;20129;-69
2021/05/23 06:06:18;;;;;;;2.75;1.50;;;14.60;89.80;;;;;;5014836;28;20133;-69
2021/05/23 06:09:02;;;;;;;3.67;1.63;;;14.70;89.70;;;;;;5012463;28;20056;-69
2021/05/23 06:11:46;;;;;;;2.08;1.40;;;14.70;89.40;;;;;;5011133;28;20037;-69
2021/05/23 06:14:31;;;;;;;3.33;1.40;;;14.70;89.30;;;;;;5011946;28;20049;-69
2021/05/23 06:17:15;;;;;;;3.78;1.58;;;14.60;89.60;;;;;;4992540;28;20097;-69
2021/05/23 06:19:59;;;;;;;2.63;1.30;;;14.60;89.70;;;;;;5010055;28;20447;-69
2021/05/23 06:22:43;;;;;;;2.50;1.40;;;14.60;89.60;;;;;;5026477;28;20075;-69
2021/05/23 06:25:27;;;;;;;2.77;1.40;;;14.60;89.80;;;;;;5022451;28;20049;-69
2021/05/23 06:28:11;;;;;;;3.15;1.60;;;14.50;89.60;;;;;;5025593;28;20629;-70
2021/05/23 06:30:55;;;;;;;2.97;1.58;;;14.50;89.40;;;;;;4993516;28;20033;-69
2021/05/23 06:33:39;;;;;;;2.17;1.20;;;14.50;89.60;;;;;;4992448;28;20033;-69
2021/05/23 06:36:23;;;;;;;2.30;1.40;;;14.50;89.40;;;;;;5008394;28;20045;-70
2021/05/23 06:39:08;;;;;;;2.75;1.60;;;14.50;89.70;;;;;;5031834;28;20028;-70
2021/05/23 06:41:52;;;;;;;;;;;14.40;89.60;;;;;;5012712;28;20117;-70
2021/05/23 06:44:37;;;;;;;2.60;1.50;;;14.40;89.20;;;;;;5010338;28;19913;-70
2021/05/23 06:47:21;;;;;;;2.53;1.35;;;14.30;89.20;;;;;;5010342;28;20246;-69
2021/05/23 06:50:06;;;;;;;2.83;1.33;;;14.30;89.40;;;;;;5023920;28;20029;-70
2021/05/23 06:52:47;;;;;;;3.40;1.70;;;14.30;89.90;;;;;;5003015;28;20422;-71
2021/05/23 06:55:12;;;;;;;4.38;1.60;;;14.30;90.10;;;;;;5007370;28;20030;-69
2021/05/23 06:57:38;;;;;;;3.50;1.40;;;14.30;90.30;;;;;;5006283;28;20037;-69
2021/05/23 07:00:07;;;;;;;2.97;1.30;;;14.30;90.50;;;;;;5010413;28;20060;-69
2021/05/23 07:02:32;;;;;;;4.32;1.55;;;14.30;90.70;;;;;;5008621;28;20073;-69
2021/05/23 07:04:58;;;;;;;3.83;1.55;;;14.30;90.80;;;;;;5010342;28;20029;-70
2021/05/23 07:07:23;;;;;;;2.97;1.63;;;14.40;90.80;;;;;;5009941;28;20030;-71
2021/05/23 07:09:49;;;;;;;4.18;1.45;;;14.40;90.90;;;;;;5013518;28;20058;-70
2021/05/23 07:12:14;;;;;;;2.28;1.40;;;14.40;91.00;;;;;;5013644;28;20390;-71
2021/05/23 07:14:40;;;;;;;3.08;1.30;;;14.40;91.00;;;;;;5016283;28;20018;-71
2021/05/23 07:17:05;;;;;;;3.00;1.40;;;14.50;91.10;;;;;;4999892;28;20453;-70
2021/05/23 07:19:31;;;;;;;1.70;1.60;;;14.60;91.20;;;;;;5016659;28;20112;-71
2021/05/23 07:21:56;;;;;;;2.28;1.40;;;14.60;91.30;;;;;;5003762;28;20034;-70
2021/05/23 07:24:22;;;;;;;3.50;1.30;;;14.80;91.30;;;;;;5013157;28;20021;-70
2021/05/23 07:26:47;;;;;;;4.32;1.42;;;14.90;91.20;;;;;;5014608;28;20036;-70
2021/05/23 07:29:13;;;;;;;2.72;1.40;;;15.00;91.10;;;;;;5016388;28;20026;-71
2021/05/23 07:31:38;;;;;;;4.63;1.70;;;15.20;90.80;;;;;;5015212;28;20037;-70
2021/05/23 07:34:04;;;;;;;4.15;1.40;;;15.40;90.70;;;;;;5017941;28;20026;-70
2021/05/23 07:36:29;;;;;;;2.15;1.00;;;15.60;90.50;;;;;;5003745;28;20113;-70
2021/05/23 07:38:55;;;;;;;2.72;1.38;;;15.70;89.70;;;;;;4998239;28;20103;-70
2021/05/23 07:41:22;;;;;;;3.95;1.60;;;15.90;89.60;;;;;;5009065;28;20292;-69
2021/05/23 07:43:47;;;;;;;2.97;1.50;;;16.00;88.80;;;;;;5017706;28;20374;-72
2021/05/23 07:46:14;;;;;;;3.10;1.73;;;16.10;88.90;;;;;;5006752;28;20030;-72
2021/05/23 07:48:39;;;;;;;3.13;1.50;;;16.20;88.70;;;;;;4996891;28;20049;-72
2021/05/23 07:51:05;;;;;;;3.40;1.52;;;16.40;87.70;;;;;;4998319;28;20031;-72
2021/05/23 07:53:31;;;;;;;3.22;1.40;;;16.50;87.50;;;;;;5000563;28;20113;-71
2021/05/23 07:55:56;;;;;;;2.35;1.30;;;16.60;87.30;;;;;;5015944;28;20109;-70
2021/05/23 07:58:23;;;;;;;3.65;1.77;;;16.80;86.90;;;;;;5016003;28;20026;-71
2021/05/23 08:00:49;;;;;;;5.30;1.48;;;17.00;85.20;;;;;;5002610;28;20030;-70
2021/05/23 08:03:14;;;;;;;4.32;1.40;;;17.10;84.00;;;;;;4997722;28;20050;-71
2021/05/23 08:05:40;;;;;;;3.88;1.45;;;17.10;81.90;;;;;;5006084;28;20057;-71
2021/05/23 08:08:06;;;;;;;2.67;1.00;;;17.20;79.50;;;;;;5015525;28;20034;-71
2021/05/23 08:10:32;;;;;;;2.90;1.38;;;17.30;78.80;;;;;;5009852;28;20030;-70
2021/05/23 08:12:57;;;;;;;2.92;1.10;;;17.30;78.10;;;;;;4998073;28;20049;-70
2021/05/23 08:15:23;;;;;;;3.03;1.20;;;17.40;77.50;;;;;;5004187;28;20026;-72
2021/05/23 08:17:52;;;;;;;4.95;1.55;;;17.50;77.50;;;;;;5017362;28;20493;-69
2021/05/23 08:20:18;;;;;;;3.40;1.45;;;17.50;76.60;;;;;;5000374;28;20034;-71
2021/05/23 08:22:44;;;;;;;4.78;1.67;;;17.50;75.70;;;;;;5001362;28;20037;-71
2021/05/23 08:25:28;;;;;;;2.50;0.98;;;17.40;75.10;;;;;;5014460;28;20060;-70
2021/05/23 08:28:13;;;;;;;2.57;1.30;;;17.40;74.70;;;;;;5028806;28;20448;-70
2021/05/23 08:30:57;;;;;;;2.40;1.17;;;17.40;75.20;;;;;;5019468;28;20295;-70
2021/05/23 08:33:41;;;;;;;2.97;1.30;;;17.50;75.40;;;;;;5032029;28;20064;-70
2021/05/23 08:36:26;;;;;;;4.35;1.40;;;17.50;74.20;;;;;;5013862;28;20060;-71
2021/05/23 08:39:10;;;;;;;2.90;1.40;;;17.50;74.30;;;;;;5011050;28;20049;-71
2021/05/23 08:41:54;;;;;;;4.75;1.50;;;17.50;73.90;;;;;;5028483;28;20068;-72
2021/05/23 08:44:38;;;;;;;1.98;1.42;;;17.60;73.40;;;;;;5011220;28;20052;-72
2021/05/23 08:47:24;;;;;;;4.20;2.08;;;17.60;73.10;;;;;;5030305;28;20041;-72
2021/05/23 08:50:08;;;;;;;2.38;1.23;;;17.70;73.40;;;;;;5015212;28;20048;-72
2021/05/23 08:52:54;;;;;;;2.35;1.42;;;17.70;73.10;;;;;;5033083;28;20091;-72
2021/05/23 08:55:21;;;;;;;1.58;1.17;;;17.70;72.50;;;;;;5000784;28;20041;-72
2021/05/23 08:58:05;;;;;;;4.05;1.17;;;17.80;72.20;;;;;;5033055;28;20056;-72
2021/05/23 09:00:49;;;;;;;4.53;1.40;;;17.70;71.80;;;;;;5024042;28;20049;-72
2021/05/23 09:03:33;;;;;;;2.35;1.60;;;17.80;72.10;;;;;;5031428;28;20103;-71
2021/05/23 09:06:26;;;;;;;2.40;1.30;;;17.90;71.70;;;;;;5023749;28;20045;-71
2021/05/23 09:09:13;;;;;;;3.40;1.25;;;17.90;71.40;;;;;;5024911;28;20136;-72
2021/05/23 09:12:04;;;;;;;4.32;1.52;;;18.00;70.60;;;;;;5024750;28;20171;-73
2021/05/23 09:14:50;;;;;;;2.28;1.13;;;18.20;70.00;;;;;;5026341;28;20462;-73
2021/05/23 09:17:34;;;;;;;1.75;1.25;;;18.30;70.60;;;;;;5018742;28;20040;-72
2021/05/23 09:20:18;;;;;;;2.47;1.37;;;18.30;69.90;;;;;;5024519;28;20070;-72
2021/05/23 09:23:08;;;;;;;2.50;1.33;;;18.40;69.30;;;;;;4995276;28;20084;-72
2021/05/23 09:25:53;;;;;;;2.60;1.40;;;18.50;68.60;;;;;;5003423;28;20307;-73
2021/05/23 09:28:39;;;;;;;2.05;1.45;;;18.60;69.00;;;;;;5003155;28;20613;-73
2021/05/23 09:31:24;;;;;;;4.03;1.60;;;18.60;68.00;;;;;;5011280;28;20634;-71
2021/05/23 09:34:08;;;;;;;4.85;1.70;;;18.70;68.20;;;;;;5024279;28;20504;-71
2021/05/23 09:36:53;;;;;;;2.00;1.33;;;18.70;67.60;;;;;;4993315;28;20494;-71
2021/05/23 09:39:38;;;;;;;4.13;1.73;;;18.70;67.80;;;;;;4989314;28;20049;-71
2021/05/23 09:42:24;;;;;;;2.60;1.42;;;18.70;68.50;;;;;;4990039;28;21942;-71
2021/05/23 09:45:09;;;;;;;4.22;1.50;;;18.60;67.40;;;;;;5000916;28;20122;-70
2021/05/23 09:47:58;;;;;;;;;;;18.60;67.70;;;;;;5009851;28;20068;-71
2021/05/23 09:50:44;;;;;;;4.05;1.73;;;18.50;68.20;;;;;;4999577;28;20466;-71
2021/05/23 09:53:34;;;;;;;2.17;1.15;;;18.60;67.60;;;;;;5003724;28;20098;-69
2021/05/23 09:56:18;;;;;;;1.40;1.30;;;18.50;67.50;;;;;;4997933;28;20033;-70
2021/05/23 09:59:02;;;;;;;1.75;1.42;;;18.60;67.50;;;;;;4991442;28;20096;-71
2021/05/23 10:01:47;;;;;;;3.40;1.20;;;18.50;68.00;;;;;;5000081;28;20486;-71
2021/05/23 10:04:31;;;;;;;1.63;1.13;;;18.50;67.80;;;;;;4998000;28;20164;-70
2021/05/23 10:07:15;;;;;;;2.27;1.07;;;18.40;67.20;;;;;;4996668;28;20042;-69
2021/05/23 10:10:00;;;;;;;2.20;1.50;;;18.30;67.30;;;;;;4999940;28;20287;-71
2021/05/23 10:12:45;;;;;;;1.15;1.00;;;18.40;67.80;;;;;;4998467;28;20049;-70
2021/05/23 10:15:29;;;;;;;;;;;18.30;66.80;;;;;;4996403;28;20032;-69
2021/05/23 10:18:14;;;;;;;4.45;1.42;;;18.20;67.00;;;;;;5000804;28;20313;-69
2021/05/23 10:20:59;;;;;;;2.28;0.82;;;18.20;67.60;;;;;;5004751;28;20110;-67
2021/05/23 10:23:54;;;;;;;1.30;0.98;;;18.30;67.10;;;;;;5000025;28;20046;-67
2021/05/23 10:26:39;;;;;;;0.82;0.70;;;18.40;66.80;;;;;;5002067;28;20065;-67
2021/05/23 10:29:25;;;;;;;2.22;1.35;;;18.50;66.00;;;;;;5005546;28;20049;-67
2021/05/23 10:32:15;;;;;;;4.05;1.70;;;18.60;65.30;;;;;;5004777;28;20326;-66
2021/05/23 10:35:15;;;;;;;1.83;1.10;;;18.70;64.70;;;;;;5021781;28;20088;-67
2021/05/23 10:38:09;;;;;;;1.70;1.00;;;18.70;63.10;;;;;;5006840;28;20589;-67
2021/05/23 10:40:55;;;;;;;2.92;1.00;;;18.90;63.20;;;;;;4999860;28;20044;-67
2021/05/23 10:43:41;;;;;;;1.10;1.00;;;19.00;63.10;;;;;;5002352;28;20060;-67
2021/05/23 10:46:26;;;;;;;1.10;0.90;;;19.20;62.40;;;;;;5007325;28;20061;-67
2021/05/23 10:49:10;;;;;;;;;;;19.20;61.80;;;;;;5006702;28;20049;-67
2021/05/23 10:51:57;;;;;;;1.83;1.00;;;19.30;62.30;;;;;;4993221;28;19956;-69
2021/05/23 10:54:41;;;;;;;6.25;3.42;;;19.30;61.30;;;;;;4994779;28;20128;-68
2021/05/23 10:57:26;;;;;;;3.55;2.63;;;19.30;61.20;;;;;;4998749;28;20065;-68
2021/05/23 11:00:39;;;;;;;2.17;1.37;;;19.40;61.80;;;;;;4990439;28;20036;-68
2021/05/23 11:03:26;;;;;;;1.75;1.20;;;19.50;61.20;;;;;;4999643;28;20052;-68
2021/05/23 11:06:10;;;;;;;1.58;1.10;;;19.60;60.60;;;;;;5004448;28;20036;-68
2021/05/23 11:08:53;;;;;;;2.47;1.30;;;19.60;60.60;;;;;;5009216;28;20076;-68
2021/05/23 11:11:38;;;;;;;2.42;1.15;;;19.60;60.90;;;;;;4999669;28;20111;-68
2021/05/23 11:14:24;;;;;;;1.35;1.00;;;19.60;61.00;;;;;;4993716;28;20577;-68
2021/05/23 11:17:10;;;;;;;1.40;1.00;;;19.70;60.60;;;;;;4995410;28;20118;-68
2021/05/23 11:19:54;;;;;;;2.88;0.98;;;19.80;60.20;;;;;;4995133;28;20093;-68
2021/05/23 11:22:38;;;;;;;1.05;0.98;;;19.90;60.00;;;;;;4995631;28;20032;-68
2021/05/23 11:25:22;;;;;;;1.15;1.02;;;20.00;59.80;;;;;;4998290;28;20041;-68
2021/05/23 11:28:08;;;;;;;1.40;1.00;;;20.10;59.30;;;;;;5004462;28;20049;-67
2021/05/23 11:30:52;;;;;;;1.52;1.05;;;20.20;58.80;;;;;;4992150;28;20109;-68
2021/05/23 11:33:36;;;;;;;1.48;0.88;;;20.20;59.00;;;;;;5002924;28;20065;-68
2021/05/23 11:36:22;;;;;;;1.08;0.93;;;20.30;58.10;;;;;;4995822;28;20096;-68
2021/05/23 11:39:09;;;;;;;2.20;1.20;;;20.20;57.90;;;;;;4994912;28;20119;-68
2021/05/23 11:41:53;;;;;;;1.00;0.90;;;20.20;57.50;;;;;;4991652;28;20041;-68
2021/05/23 11:44:39;;;;;;;1.80;1.33;;;20.10;58.10;;;;;;4996226;28;20041;-68
2021/05/23 11:47:23;;;;;;;4.82;2.20;;;20.00;58.10;;;;;;4993879;28;20046;-68
2021/05/23 11:50:07;;;;;;;3.10;1.93;;;19.80;58.20;;;;;;5009742;28;20037;-68
2021/05/23 11:52:56;;;;;;;2.30;1.63;;;19.70;58.80;;;;;;5006437;28;20402;-69
2021/05/23 11:55:50;;;;;;;2.35;1.20;;;19.80;59.30;;;;;;5009411;28;20037;-68
2021/05/23 11:58:34;;;;;;;1.40;1.10;;;19.80;59.30;;;;;;5004526;28;20081;-68
2021/05/23 12:01:18;;;;;;;6.07;2.25;;;19.80;59.10;;;;;;5003141;28;20118;-68
2021/05/23 12:04:10;;;;;;;1.95;1.33;;;19.80;59.40;;;;;;5002272;28;20046;-69
2021/05/23 12:06:55;;;;;;;1.55;1.38;;;19.80;59.50;;;;;;4995883;28;20509;-69
2021/05/23 12:09:39;;;;;;;2.05;1.40;;;19.80;59.20;;;;;;5007470;28;20186;-69
2021/05/23 12:12:24;;;;;;;1.67;1.40;;;19.90;59.10;;;;;;4993427;28;20598;-68
2021/05/23 12:15:17;;;;;;;2.00;1.13;;;19.80;58.40;;;;;;5001557;28;20048;-69
2021/05/23 12:18:02;;;;;;;1.45;1.08;;;20.00;57.90;;;;;;5012476;28;20144;-69
2021/05/23 12:20:47;;;;;;;1.65;0.93;;;20.10;57.20;;;;;;5001417;28;20474;-69
2021/05/23 12:23:33;;;;;;;1.50;1.02;;;20.00;57.00;;;;;;5014436;28;20169;-69
2021/05/23 12:26:18;;;;;;;1.58;1.08;;;20.00;57.20;;;;;;5008923;28;20053;-69
2021/05/23 12:29:03;;;;;;;2.95;1.20;;;20.00;57.70;;;;;;4993645;28;20052;-68
2021/05/23 12:31:47;;;;;;;1.20;1.10;;;20.00;57.00;;;;;;5009742;28;20049;-69
2021/05/23 12:34:32;;;;;;;1.23;1.10;;;19.80;56.70;;;;;;5010336;28;20088;-69
2021/05/23 12:37:21;;;;;;;2.78;1.48;;;19.60;56.70;;;;;;5005036;28;20048;-69
2021/05/23 12:40:17;;;;;;;1.60;1.17;;;19.50;57.80;;;;;;5001251;28;20041;-69
2021/05/23 12:43:18;;;;;;;;;;;19.40;57.70;;;;;;5013090;28;20078;-69
2021/05/23 12:46:08;;;;;;;2.58;1.10;;;19.40;58.10;;;;;;5011360;28;19920;-68
2021/05/23 12:48:52;;;;;;;1.75;1.30;;;19.30;58.80;;;;;;5010375;28;20132;-68
2021/05/23 12:51:42;;;;;;;1.60;1.23;;;19.20;59.30;;;;;;5012474;28;20452;-69
2021/05/23 12:54:32;;;;;;;2.72;1.00;;;19.30;59.60;;;;;;4996796;28;20049;-69
2021/05/23 12:57:02;;;;;;;1.50;1.15;;;19.40;59.60;;;;;;5012363;28;20569;-69
2021/05/23 12:59:46;;;;;;;3.38;1.33;;;19.60;59.70;;;;;;4999342;28;20041;-69
2021/05/23 13:02:30;;;;;;;2.83;1.10;;;19.60;59.70;;;;;;5011863;28;20481;-69
2021/05/23 13:05:16;;;;;;;1.87;1.27;;;19.70;58.80;;;;;;5006172;28;20565;-69
2021/05/23 13:08:11;;;;;;;3.38;1.40;;;19.70;58.30;;;;;;5012655;28;20045;-69
2021/05/23 13:10:55;;;;;;;2.30;1.17;;;19.60;58.40;;;;;;5004589;28;20242;-69
2021/05/23 13:13:41;;;;;;;2.58;1.33;;;19.50;58.40;;;;;;4993722;28;20505;-69
2021/05/23 13:16:25;;;;;;;1.30;1.00;;;19.50;58.20;;;;;;5004654;28;20425;-69
2021/05/23 13:19:13;;;;;;;2.45;1.00;;;19.50;58.20;;;;;;5015553;28;20040;-69
2021/05/23 13:21:59;;;;;;;1.80;1.08;;;19.60;57.90;;;;;;5011716;28;20453;-69
2021/05/23 13:24:46;;;;;;;1.00;0.95;;;19.60;58.00;;;;;;5005960;28;20037;-69
2021/05/23 13:27:30;;;;;;;2.20;1.23;;;19.80;58.40;;;;;;5012536;28;20095;-69
2021/05/23 13:30:16;;;;;;;1.65;0.90;;;19.80;58.40;;;;;;5001657;28;20113;-68
2021/05/23 13:33:01;;;;;;;1.65;1.10;;;19.80;56.60;;;;;;4998606;28;20037;-69
2021/05/23 13:35:44;;;;;;;1.73;1.10;;;19.80;56.00;;;;;;5010704;28;20037;-68
2021/05/23 13:38:28;;;;;;;2.40;1.10;;;19.80;55.80;;;;;;4997550;28;20104;-69
2021/05/23 13:41:12;;;;;;;1.40;0.80;;;19.80;55.40;;;;;;4995258;28;20052;-69
2021/05/23 13:43:56;;;;;;;3.50;1.10;;;19.80;55.30;;;;;;5000468;28;20095;-69
2021/05/23 13:46:42;;;;;;;4.10;1.23;;;19.90;54.80;;;;;;5008746;28;20045;-68
2021/05/23 13:49:27;;;;;;;1.35;1.10;;;19.80;54.00;;;;;;4996695;28;20546;-69
2021/05/23 13:52:13;;;;;;;2.00;1.30;;;19.80;54.70;;;;;;5007589;28;20040;-67
2021/05/23 13:54:57;;;;;;;2.95;1.08;;;19.80;54.60;;;;;;4995785;28;20092;-66
2021/05/23 13:57:41;;;;;;;1.20;1.07;;;19.90;54.30;;;;;;5007429;28;20601;-66
2021/05/23 14:00:25;;;;;;;1.80;1.20;;;20.00;54.50;;;;;;5010227;28;20307;-69
2021/05/23 14:03:19;;;;;;;4.00;1.27;;;20.20;54.80;;;;;;5007734;28;20069;-69
2021/05/23 14:06:03;;;;;;;1.73;1.08;;;20.40;54.50;;;;;;5006817;28;20437;-73
2021/05/23 14:08:48;;;;;;;1.85;0.82;;;20.80;54.10;;;;;;4993025;28;20445;-68
2021/05/23 14:11:32;;;;;;;2.00;1.07;;;20.90;53.40;;;;;;5006924;28;20043;-68